Time;durP1;ratioP1;P1;durP2;ratioP2;P2;SDS_P1;SDS_P2;PMS_P1;PMS_P2;Temp;Humidity;BMP_temperature;BMP_pressure;BME280_temperature;BME280_humidity;BME280_pressure;Samples;Min_cycle;Max_cycle;Signal;HPM_P1;HPM_P2
2021/12/18 00:00:44;;;;;;;8.10;4.57;;;4.90;99.90;;;;;;5098422;28;20452;-87
2021/12/18 00:03:11;;;;;;;8.15;4.65;;;5.00;99.90;;;;;;5115820;28;20305;-87
2021/12/18 00:05:38;;;;;;;10.90;5.90;;;5.00;99.90;;;;;;5098071;28;20134;-87
2021/12/18 00:08:05;;;;;;;9.38;5.82;;;4.90;99.90;;;;;;5097828;28;20098;-87
2021/12/18 00:10:32;;;;;;;8.90;4.80;;;4.90;99.90;;;;;;5116023;28;20050;-87
2021/12/18 00:13:00;;;;;;;6.63;4.75;;;5.00;99.90;;;;;;5098575;28;20400;-87
2021/12/18 00:15:29;;;;;;;6.30;4.32;;;5.00;99.90;;;;;;5098285;28;20130;-87
2021/12/18 00:17:57;;;;;;;9.00;4.68;;;5.00;99.90;;;;;;5098077;28;20044;-87
2021/12/18 00:20:26;;;;;;;7.28;4.22;;;5.00;99.90;;;;;;5098042;28;20051;-87
2021/12/18 00:22:53;;;;;;;5.43;4.22;;;5.10;99.90;;;;;;5097547;28;20139;-88
2021/12/18 00:25:20;;;;;;;5.22;4.30;;;5.10;99.90;;;;;;5098074;28;20050;-87
2021/12/18 00:27:46;;;;;;;6.60;4.40;;;5.10;99.90;;;;;;5098048;28;20071;-87
2021/12/18 00:30:16;;;;;;;6.05;4.15;;;5.10;99.90;;;;;;5097763;28;20062;-88
2021/12/18 00:32:43;;;;;;;8.13;4.53;;;5.00;99.90;;;;;;5098042;28;20083;-87
2021/12/18 00:35:10;;;;;;;6.93;4.88;;;5.10;99.90;;;;;;5097389;28;20057;-88
2021/12/18 00:37:37;;;;;;;5.93;4.90;;;5.10;99.90;;;;;;5097960;28;20604;-87
2021/12/18 00:40:09;;;;;;;9.68;6.57;;;5.00;99.90;;;;;;5097749;28;20090;-87
2021/12/18 00:45:12;;;;;;;10.88;7.25;;;5.00;99.90;;;;;;5115393;28;20083;-87
2021/12/18 00:47:39;;;;;;;9.73;6.13;;;5.00;99.90;;;;;;5097798;28;20086;-88
2021/12/18 00:50:10;;;;;;;9.13;5.93;;;5.00;99.90;;;;;;5097471;28;20100;-87
2021/12/18 00:52:36;;;;;;;10.85;5.28;;;5.00;99.90;;;;;;5101507;28;20256;-87
2021/12/18 00:55:04;;;;;;;8.48;5.50;;;5.10;99.90;;;;;;5105857;28;20059;-87
2021/12/18 00:57:31;;;;;;;8.13;5.55;;;5.00;99.90;;;;;;5097446;28;20485;-87
2021/12/18 01:00:01;;;;;;;7.22;4.72;;;5.00;99.90;;;;;;5097178;28;20048;-87
2021/12/18 01:02:30;;;;;;;5.38;3.85;;;5.10;99.90;;;;;;5096893;28;20047;-87
2021/12/18 01:04:57;;;;;;;6.10;4.60;;;5.10;99.90;;;;;;5097738;28;20050;-87
2021/12/18 01:07:24;;;;;;;8.35;4.90;;;5.10;99.90;;;;;;5097247;28;20085;-87
2021/12/18 01:10:05;;;;;;;10.23;6.93;;;5.00;99.90;;;;;;5096727;28;20052;-87
2021/12/18 01:12:38;;;;;;;6.93;4.57;;;5.00;99.90;;;;;;5097345;28;20051;-87
2021/12/18 01:15:16;;;;;;;7.35;4.32;;;5.10;99.90;;;;;;5097339;28;20048;-87
2021/12/18 01:23:17;;;;;;;12.23;7.70;;;5.00;99.90;;;;;;5114355;28;20487;-87
2021/12/18 01:25:45;;;;;;;8.63;3.72;;;5.00;99.90;;;;;;5097029;28;20101;-87
2021/12/18 01:28:12;;;;;;;8.02;4.60;;;5.00;99.90;;;;;;5096640;28;20055;-87
2021/12/18 01:30:39;;;;;;;6.00;4.85;;;5.00;99.90;;;;;;5114640;28;20087;-87
2021/12/18 01:33:06;;;;;;;9.07;5.63;;;5.00;99.90;;;;;;5114704;28;20091;-87
2021/12/18 01:35:33;;;;;;;6.57;5.40;;;5.00;99.90;;;;;;5096595;28;20071;-87
2021/12/18 01:38:00;;;;;;;8.30;5.95;;;5.00;99.90;;;;;;5096862;28;20049;-87
2021/12/18 01:40:27;;;;;;;8.32;5.50;;;5.00;99.90;;;;;;5114434;28;20047;-87
2021/12/18 01:53:41;;;;;;;10.88;7.60;;;4.90;99.90;;;;;;5114332;28;20076;-87
2021/12/18 01:56:09;;;;;;;15.13;8.30;;;4.90;99.90;;;;;;5096208;28;20054;-87
2021/12/18 01:58:36;;;;;;;16.02;8.25;;;4.70;99.90;;;;;;5113566;28;20130;-87
2021/12/18 02:01:04;;;;;;;12.52;8.50;;;4.70;99.90;;;;;;5095903;28;20055;-87
2021/12/18 02:03:32;;;;;;;16.58;9.10;;;4.80;99.90;;;;;;5113948;28;20052;-87
2021/12/18 02:05:59;;;;;;;14.77;8.63;;;4.80;99.90;;;;;;5113952;28;20048;-87
2021/12/18 02:08:28;;;;;;;12.80;8.45;;;4.90;99.90;;;;;;5116922;28;20086;-87
2021/12/18 02:11:11;;;;;;;12.57;8.75;;;4.90;99.90;;;;;;5106944;28;20051;-87
2021/12/18 02:19:36;;;;;;;19.30;11.25;;;4.70;99.90;;;;;;5113697;28;20060;-87
2021/12/18 02:22:03;;;;;;;19.40;10.80;;;4.80;99.90;;;;;;5113735;28;20054;-87
2021/12/18 02:24:32;;;;;;;20.58;11.57;;;4.70;99.90;;;;;;5095563;28;20055;-87
2021/12/18 02:26:59;;;;;;;17.63;10.75;;;4.80;99.90;;;;;;5095606;28;20050;-87
2021/12/18 02:29:29;;;;;;;25.17;12.20;;;4.70;99.90;;;;;;5095330;28;20404;-87
2021/12/18 02:31:57;;;;;;;22.00;12.57;;;4.80;99.90;;;;;;5095770;28;20131;-87
2021/12/18 02:34:29;;;;;;;20.30;11.70;;;4.80;99.90;;;;;;5095821;28;20083;-87
2021/12/18 02:37:02;;;;;;;19.15;10.82;;;4.80;99.90;;;;;;5113847;28;20418;-87
2021/12/18 02:42:08;;;;;;;15.23;8.68;;;4.90;99.90;;;;;;5113398;28;20389;-87
2021/12/18 02:44:39;;;;;;;14.90;9.02;;;4.90;99.90;;;;;;5095799;28;20051;-87
2021/12/18 02:47:07;;;;;;;12.73;8.95;;;4.90;99.90;;;;;;5095835;28;20096;-87
2021/12/18 02:49:34;;;;;;;18.48;11.32;;;4.80;99.90;;;;;;5095863;28;20044;-87
2021/12/18 02:52:02;;;;;;;23.08;10.77;;;4.90;99.90;;;;;;5095797;28;20139;-87
2021/12/18 02:54:29;;;;;;;28.00;13.75;;;4.80;99.90;;;;;;5095555;28;20055;-87
2021/12/18 02:56:56;;;;;;;23.63;13.45;;;4.70;99.90;;;;;;5113269;28;20079;-87
2021/12/18 02:59:24;;;;;;;20.90;12.85;;;4.70;99.90;;;;;;5113545;28;20046;-87
2021/12/18 03:01:51;;;;;;;21.63;13.50;;;4.70;99.90;;;;;;5095583;28;20079;-87
2021/12/18 03:04:26;;;;;;;23.65;13.20;;;4.70;99.90;;;;;;5113067;28;20063;-87
2021/12/18 03:06:58;;;;;;;24.50;13.02;;;4.80;99.90;;;;;;5113200;28;20050;-87
2021/12/18 03:23:14;;;;;;;26.70;14.00;;;4.90;99.90;;;;;;5113588;28;20048;-87
2021/12/18 03:25:41;;;;;;;23.75;13.85;;;4.90;99.90;;;;;;5102112;28;20055;-86
2021/12/18 03:28:08;;;;;;;21.77;13.55;;;4.90;99.90;;;;;;5102746;28;20073;-87
2021/12/18 03:30:36;;;;;;;25.02;13.13;;;4.90;99.90;;;;;;5113018;28;20054;-87
2021/12/18 03:33:04;;;;;;;23.45;12.50;;;4.90;99.90;;;;;;5096145;28;20087;-87
2021/12/18 03:35:31;;;;;;;22.45;12.10;;;4.90;99.90;;;;;;5098994;28;20078;-87
2021/12/18 03:37:57;;;;;;;18.40;12.45;;;4.90;99.90;;;;;;5098824;28;20079;-87
2021/12/18 03:40:26;;;;;;;19.83;11.85;;;5.00;99.90;;;;;;5098993;28;20087;-87
2021/12/18 03:42:53;;;;;;;26.08;13.65;;;5.00;99.90;;;;;;5116353;28;20047;-87
2021/12/18 03:45:21;;;;;;;26.05;14.18;;;5.00;99.90;;;;;;5098811;28;20059;-87
2021/12/18 03:47:49;;;;;;;26.65;14.85;;;5.00;99.90;;;;;;5098779;28;20380;-87
2021/12/18 03:50:17;;;;;;;24.90;13.45;;;5.00;99.90;;;;;;5098714;28;20047;-87
2021/12/18 03:52:44;;;;;;;22.48;13.80;;;4.90;99.90;;;;;;5116414;28;20488;-87
2021/12/18 03:55:11;;;;;;;24.20;14.32;;;5.00;99.90;;;;;;5098401;28;20082;-87
2021/12/18 03:57:38;;;;;;;23.63;14.02;;;5.00;99.90;;;;;;5116469;28;20054;-87
2021/12/18 04:00:08;;;;;;;30.98;15.00;;;5.00;99.90;;;;;;5098291;28;20061;-87
2021/12/18 04:02:34;;;;;;;23.95;14.05;;;5.00;99.90;;;;;;5098501;28;20078;-87
2021/12/18 04:05:02;;;;;;;26.02;15.25;;;5.00;99.90;;;;;;5097948;28;20055;-87
2021/12/18 04:07:28;;;;;;;24.15;15.32;;;5.00;99.90;;;;;;5098068;28;20073;-87
2021/12/18 04:09:55;;;;;;;29.80;16.08;;;5.00;99.90;;;;;;5098206;28;20051;-87
2021/12/18 04:12:22;;;;;;;28.65;15.60;;;5.00;99.90;;;;;;5098617;28;20063;-87
2021/12/18 04:14:49;;;;;;;25.08;14.52;;;5.00;99.90;;;;;;5098334;28;20051;-87
2021/12/18 04:17:16;;;;;;;27.40;13.85;;;5.00;99.90;;;;;;5097961;28;20051;-87
2021/12/18 04:19:43;;;;;;;29.55;14.90;;;4.90;99.90;;;;;;5115999;28;20518;-88
2021/12/18 04:22:09;;;;;;;24.83;14.52;;;4.90;99.90;;;;;;5115796;28;20051;-87
2021/12/18 04:24:36;;;;;;;27.38;15.20;;;5.00;99.90;;;;;;5097732;28;20048;-87
2021/12/18 04:27:03;;;;;;;29.10;15.23;;;5.00;99.90;;;;;;5116014;28;20047;-87
2021/12/18 04:29:30;;;;;;;29.83;15.50;;;5.00;99.90;;;;;;5097987;28;20130;-87
2021/12/18 04:31:56;;;;;;;24.48;14.75;;;5.00;99.90;;;;;;5097802;28;20088;-88
2021/12/18 04:34:24;;;;;;;25.17;14.82;;;5.00;99.90;;;;;;5097856;28;20134;-87
2021/12/18 04:36:50;;;;;;;26.67;15.20;;;5.00;99.90;;;;;;5115619;28;20075;-87
2021/12/18 04:39:17;;;;;;;27.88;15.32;;;5.00;99.90;;;;;;5098045;28;20050;-87
2021/12/18 04:41:50;;;;;;;22.10;13.80;;;5.00;99.90;;;;;;5119150;28;20111;-88
2021/12/18 04:44:17;;;;;;;23.55;13.73;;;5.00;99.90;;;;;;5121302;28;20047;-87
2021/12/18 04:46:44;;;;;;;24.30;12.38;;;5.00;99.90;;;;;;5114878;28;20094;-87
2021/12/18 04:49:13;;;;;;;22.52;13.43;;;5.00;99.90;;;;;;5097291;28;20059;-87
2021/12/18 04:51:41;;;;;;;18.52;11.85;;;5.00;99.90;;;;;;5097720;28;20056;-88
2021/12/18 04:54:08;;;;;;;27.38;13.43;;;4.90;99.90;;;;;;5097640;28;20148;-87
2021/12/18 04:56:35;;;;;;;23.83;12.60;;;5.00;99.90;;;;;;5097578;28;20130;-86
2021/12/18 04:59:03;;;;;;;22.02;12.02;;;5.00;99.90;;;;;;5115346;28;20051;-87
2021/12/18 05:01:36;;;;;;;27.20;12.75;;;5.00;99.90;;;;;;5097321;28;20047;-87
2021/12/18 05:04:05;;;;;;;27.35;13.38;;;5.00;99.90;;;;;;5115269;28;20475;-86
2021/12/18 05:06:35;;;;;;;26.52;13.35;;;4.90;99.90;;;;;;5115520;28;20097;-87
2021/12/18 05:09:03;;;;;;;24.48;12.63;;;4.90;99.90;;;;;;5097400;28;20056;-87
2021/12/18 05:11:32;;;;;;;25.98;12.93;;;4.80;99.90;;;;;;5115027;28;20563;-88
2021/12/18 05:13:58;;;;;;;30.05;13.20;;;4.80;99.90;;;;;;5115300;28;20044;-88
2021/12/18 05:16:25;;;;;;;23.60;12.35;;;4.70;99.90;;;;;;5097379;28;20047;-87
2021/12/18 05:18:52;;;;;;;22.75;11.38;;;4.80;99.90;;;;;;5097113;28;20051;-88
2021/12/18 05:21:19;;;;;;;21.13;10.80;;;4.70;99.90;;;;;;5115072;28;20047;-87
2021/12/18 05:23:46;;;;;;;18.48;9.25;;;4.70;99.90;;;;;;5097272;28;20078;-87
2021/12/18 05:26:13;;;;;;;17.05;8.55;;;4.60;99.90;;;;;;5097097;28;20136;-87
2021/12/18 05:28:40;;;;;;;14.38;7.32;;;4.60;99.90;;;;;;5097304;28;20044;-87
2021/12/18 05:31:09;;;;;;;13.25;7.78;;;4.50;99.90;;;;;;5096791;28;20048;-88
2021/12/18 05:33:36;;;;;;;14.43;8.13;;;4.50;99.90;;;;;;5097165;28;20058;-88
2021/12/18 05:36:13;;;;;;;11.50;8.05;;;4.50;99.90;;;;;;5097106;28;20043;-87
2021/12/18 05:38:40;;;;;;;12.48;8.13;;;4.50;99.90;;;;;;5115960;28;20058;-88
2021/12/18 05:41:07;;;;;;;13.40;8.35;;;4.50;99.90;;;;;;5096557;28;20046;-87
2021/12/18 05:43:33;;;;;;;11.93;8.23;;;4.40;99.90;;;;;;5096688;28;20048;-87
2021/12/18 05:46:00;;;;;;;11.55;7.50;;;4.30;99.90;;;;;;5114276;28;20480;-87
2021/12/18 05:48:27;;;;;;;11.50;7.65;;;4.40;99.90;;;;;;5096603;28;20054;-88
2021/12/18 05:50:54;;;;;;;11.75;7.90;;;4.50;99.90;;;;;;5096522;28;20497;-88
2021/12/18 05:53:21;;;;;;;9.18;6.65;;;4.50;99.90;;;;;;5096671;28;20139;-87
2021/12/18 05:55:47;;;;;;;10.20;6.47;;;4.50;99.90;;;;;;5114549;28;20043;-87
2021/12/18 05:58:14;;;;;;;10.00;7.10;;;4.50;99.90;;;;;;5104978;28;20066;-88
2021/12/18 06:00:41;;;;;;;7.35;5.03;;;4.50;99.90;;;;;;5119322;28;20048;-87
2021/12/18 06:03:07;;;;;;;7.70;5.80;;;4.50;99.90;;;;;;5096352;28;20415;-87
2021/12/18 06:05:34;;;;;;;7.97;5.28;;;4.50;99.90;;;;;;5096538;28;20047;-87
2021/12/18 06:08:03;;;;;;;6.82;5.15;;;4.50;99.90;;;;;;5096137;28;20453;-87
2021/12/18 06:10:33;;;;;;;5.68;4.40;;;4.50;99.90;;;;;;5096155;28;20407;-87
2021/12/18 06:13:02;;;;;;;5.70;4.25;;;4.50;99.90;;;;;;5096181;28;20047;-88
2021/12/18 06:15:29;;;;;;;4.88;4.03;;;4.50;99.90;;;;;;5096176;28;20139;-87
2021/12/18 06:17:57;;;;;;;4.13;3.70;;;4.50;99.90;;;;;;5096133;28;20135;-87
2021/12/18 06:20:26;;;;;;;4.50;4.07;;;4.50;99.90;;;;;;5113919;28;20051;-88
2021/12/18 06:22:53;;;;;;;4.78;3.70;;;4.50;99.90;;;;;;5095899;28;20050;-87
2021/12/18 06:25:20;;;;;;;4.28;3.60;;;4.60;99.90;;;;;;5113835;28;20449;-88
2021/12/18 06:27:48;;;;;;;4.72;3.67;;;4.60;99.90;;;;;;5114170;28;20049;-87
2021/12/18 06:30:17;;;;;;;5.85;3.60;;;4.60;99.90;;;;;;5113704;28;20054;-87
2021/12/18 06:32:44;;;;;;;4.63;4.03;;;4.70;99.90;;;;;;5096351;28;20054;-88
2021/12/18 06:35:11;;;;;;;6.13;4.28;;;4.70;99.90;;;;;;5095738;28;20058;-87
2021/12/18 06:37:38;;;;;;;4.53;3.80;;;4.70;99.90;;;;;;5113584;28;20054;-87
2021/12/18 06:40:06;;;;;;;7.55;4.20;;;4.60;99.90;;;;;;5113556;28;20093;-88
2021/12/18 06:42:38;;;;;;;4.60;4.20;;;4.70;99.90;;;;;;5096559;28;20112;-88
2021/12/18 06:45:06;;;;;;;3.70;3.40;;;4.70;99.90;;;;;;5095406;28;20054;-88
2021/12/18 06:47:33;;;;;;;3.53;3.05;;;4.70;99.90;;;;;;5096094;28;20047;-87
2021/12/18 06:50:00;;;;;;;3.45;3.08;;;4.70;99.90;;;;;;5095612;28;20055;-88
2021/12/18 06:52:27;;;;;;;4.85;1.80;;;4.60;99.90;;;;;;5095473;28;20043;-87
2021/12/18 06:54:53;;;;;;;3.65;2.22;;;4.50;99.90;;;;;;5113736;28;20054;-88
2021/12/18 06:57:22;;;;;;;2.88;1.73;;;4.50;99.90;;;;;;5095908;28;20047;-87
2021/12/18 06:59:50;;;;;;;1.92;1.83;;;4.60;99.90;;;;;;5095840;28;20047;-87
2021/12/18 07:02:18;;;;;;;1.80;1.70;;;4.60;99.90;;;;;;5096155;28;20068;-87
2021/12/18 07:04:45;;;;;;;1.42;1.33;;;4.60;99.90;;;;;;5095495;28;20056;-87
2021/12/18 07:07:12;;;;;;;6.00;1.80;;;4.50;99.90;;;;;;5113430;28;20050;-87
2021/12/18 07:09:38;;;;;;;2.15;1.95;;;4.50;99.90;;;;;;5099423;28;20043;-87
2021/12/18 07:12:05;;;;;;;2.25;2.05;;;4.50;99.90;;;;;;5099556;28;20047;-87
2021/12/18 07:14:32;;;;;;;3.65;3.35;;;4.50;99.90;;;;;;5107481;28;20050;-86
2021/12/18 07:16:59;;;;;;;4.25;2.83;;;4.50;99.90;;;;;;5104824;28;20086;-87
2021/12/18 07:19:26;;;;;;;3.38;3.10;;;4.60;99.90;;;;;;5099175;28;20395;-86
2021/12/18 07:21:53;;;;;;;1.65;1.55;;;4.50;99.90;;;;;;5116914;28;20043;-87
2021/12/18 07:24:20;;;;;;;1.90;1.67;;;4.50;99.90;;;;;;5098948;28;20039;-88
2021/12/18 07:26:47;;;;;;;2.40;2.30;;;4.50;99.90;;;;;;5116756;28;20400;-88
2021/12/18 07:29:14;;;;;;;3.17;2.90;;;4.50;99.90;;;;;;5098857;28;20517;-88
2021/12/18 07:31:41;;;;;;;1.60;1.50;;;4.50;99.90;;;;;;5099055;28;20055;-88
2021/12/18 07:34:08;;;;;;;1.98;1.30;;;4.40;99.90;;;;;;5116825;28;20126;-88
2021/12/18 07:36:34;;;;;;;1.95;1.23;;;4.40;99.90;;;;;;5099172;28;20051;-88
2021/12/18 07:39:02;;;;;;;1.10;1.10;;;4.40;99.90;;;;;;5117010;28;20513;-88
2021/12/18 07:41:29;;;;;;;1.70;1.60;;;4.40;99.90;;;;;;5098830;28;20518;-88
2021/12/18 07:43:56;;;;;;;4.22;2.33;;;4.30;99.90;;;;;;5099116;28;20055;-88
2021/12/18 07:46:23;;;;;;;1.98;1.73;;;4.30;99.90;;;;;;5117487;28;20521;-87
2021/12/18 07:48:50;;;;;;;2.25;2.15;;;4.40;99.90;;;;;;5116526;28;20051;-88
2021/12/18 07:51:17;;;;;;;4.95;3.60;;;4.50;99.90;;;;;;5098610;28;20411;-88
2021/12/18 07:53:44;;;;;;;11.40;7.32;;;4.50;99.90;;;;;;5098650;28;20043;-88
2021/12/18 07:56:10;;;;;;;5.60;4.25;;;4.50;99.90;;;;;;5098575;28;20051;-88
2021/12/18 07:58:37;;;;;;;4.15;3.55;;;4.50;99.90;;;;;;5116143;28;20040;-88
2021/12/18 08:01:04;;;;;;;4.47;3.20;;;4.60;99.90;;;;;;5099435;28;20054;-88
2021/12/18 08:03:31;;;;;;;5.65;4.70;;;4.60;99.90;;;;;;5098549;28;20047;-88
2021/12/18 08:05:58;;;;;;;3.08;2.22;;;4.70;99.90;;;;;;5116328;28;20047;-88
2021/12/18 08:08:25;;;;;;;1.50;1.40;;;4.70;99.90;;;;;;5098235;28;20046;-88
2021/12/18 08:10:52;;;;;;;1.77;1.63;;;4.80;99.90;;;;;;5116278;28;20487;-88
2021/12/18 08:13:18;;;;;;;3.60;3.38;;;4.90;99.90;;;;;;5098133;28;20543;-88
2021/12/18 08:15:45;;;;;;;2.55;2.08;;;5.00;99.90;;;;;;5098607;28;20059;-87
2021/12/18 08:18:12;;;;;;;2.33;2.05;;;5.00;99.90;;;;;;5098895;28;20399;-88
2021/12/18 08:20:39;;;;;;;1.50;1.40;;;5.00;99.90;;;;;;5098495;28;20126;-88
2021/12/18 08:23:07;;;;;;;2.58;2.47;;;5.00;99.90;;;;;;5116184;28;20048;-87
2021/12/18 08:25:34;;;;;;;1.70;1.60;;;5.00;99.90;;;;;;5116499;28;20404;-87
2021/12/18 08:28:03;;;;;;;1.65;1.23;;;5.10;99.90;;;;;;5098731;28;20050;-88
2021/12/18 08:30:33;;;;;;;5.18;4.65;;;5.00;99.90;;;;;;5103771;28;20048;-86
2021/12/18 08:33:00;;;;;;;19.80;13.18;;;5.10;99.90;;;;;;5109997;28;20048;-87
2021/12/18 08:35:28;;;;;;;7.32;5.35;;;5.10;99.90;;;;;;5116213;28;20074;-87
2021/12/18 08:37:57;;;;;;;3.40;3.10;;;5.20;99.90;;;;;;5098282;28;20067;-88
2021/12/18 08:40:25;;;;;;;4.65;4.25;;;5.30;99.90;;;;;;5097833;28;20082;-88
2021/12/18 08:42:52;;;;;;;2.05;1.50;;;5.30;99.90;;;;;;5097870;28;20050;-88
2021/12/18 08:45:19;;;;;;;2.58;1.15;;;5.40;99.90;;;;;;5098030;28;20056;-88
2021/12/18 08:47:46;;;;;;;4.63;4.22;;;5.30;99.90;;;;;;5115686;28;20411;-87
2021/12/18 08:50:17;;;;;;;4.28;3.58;;;5.30;99.90;;;;;;5115700;28;20047;-88
2021/12/18 08:52:48;;;;;;;2.22;1.70;;;5.40;99.90;;;;;;5097884;28;20167;-88
2021/12/18 08:55:17;;;;;;;1.23;1.13;;;5.50;99.90;;;;;;5097590;28;20086;-88
2021/12/18 08:57:44;;;;;;;1.40;1.30;;;5.60;99.90;;;;;;5115400;28;20039;-88
2021/12/18 09:00:16;;;;;;;3.53;2.20;;;5.60;99.90;;;;;;5097496;28;20090;-88
2021/12/18 09:02:46;;;;;;;4.20;3.35;;;5.80;99.90;;;;;;5097546;28;20054;-88
2021/12/18 09:05:13;;;;;;;5.50;3.70;;;5.90;99.90;;;;;;5096829;28;20094;-88
2021/12/18 09:07:41;;;;;;;6.25;4.70;;;6.00;99.90;;;;;;5096963;28;20046;-87
2021/12/18 09:10:08;;;;;;;9.30;5.30;;;6.00;99.90;;;;;;5095581;28;20097;-88
2021/12/18 09:12:35;;;;;;;6.13;4.00;;;6.00;99.90;;;;;;5096928;28;20126;-88
2021/12/18 09:15:03;;;;;;;8.80;5.43;;;6.00;99.90;;;;;;5114550;28;20048;-88
2021/12/18 09:17:30;;;;;;;3.13;2.83;;;6.00;99.90;;;;;;5097095;28;20044;-88
2021/12/18 09:19:57;;;;;;;3.97;2.70;;;6.10;99.90;;;;;;5096937;28;20059;-87
2021/12/18 09:22:23;;;;;;;7.18;4.80;;;6.10;99.90;;;;;;5096724;28;20054;-88
2021/12/18 09:24:50;;;;;;;2.20;2.10;;;6.20;99.90;;;;;;5096514;28;20050;-88
2021/12/18 09:27:17;;;;;;;4.82;3.25;;;6.30;99.90;;;;;;5096613;28;20470;-87
2021/12/18 09:29:44;;;;;;;3.47;3.15;;;6.40;99.90;;;;;;5096789;28;20050;-87
2021/12/18 09:32:11;;;;;;;1.98;1.80;;;6.40;99.90;;;;;;5095594;28;20155;-88
2021/12/18 09:34:38;;;;;;;3.95;1.40;;;6.40;99.90;;;;;;5096846;28;20055;-88
2021/12/18 09:37:05;;;;;;;13.73;9.95;;;6.50;99.90;;;;;;5114509;28;20140;-87
2021/12/18 09:39:33;;;;;;;2.70;2.50;;;6.50;99.90;;;;;;5114508;28;20441;-87
2021/12/18 09:42:00;;;;;;;1.17;0.85;;;6.50;99.90;;;;;;5096575;28;20051;-88
2021/12/18 09:44:33;;;;;;;1.52;0.77;;;6.50;99.90;;;;;;5098190;28;20044;-87
2021/12/18 09:47:01;;;;;;;1.00;0.52;;;6.50;99.90;;;;;;5131443;28;20134;-88
2021/12/18 09:49:28;;;;;;;0.90;0.60;;;6.40;99.90;;;;;;5098828;28;20058;-88
2021/12/18 09:51:55;;;;;;;0.60;0.60;;;6.30;99.90;;;;;;5096496;28;20049;-87
2021/12/18 09:54:23;;;;;;;0.85;0.68;;;6.20;99.90;;;;;;5096723;28;20381;-87
2021/12/18 09:56:51;;;;;;;1.08;0.70;;;6.20;99.90;;;;;;5096444;28;20052;-87
2021/12/18 09:59:19;;;;;;;7.05;0.88;;;6.40;99.90;;;;;;5096886;28;20052;-88
2021/12/18 10:01:46;;;;;;;1.30;0.73;;;6.40;99.90;;;;;;5096336;28;20044;-88
2021/12/18 10:04:31;;;;;;;2.35;0.90;;;6.40;99.90;;;;;;5095752;28;20143;-87
2021/12/18 10:07:00;;;;;;;0.85;0.85;;;6.40;99.90;;;;;;5096205;28;20051;-87
2021/12/18 10:09:27;;;;;;;2.50;1.23;;;6.50;99.90;;;;;;5096170;28;20168;-87
2021/12/18 10:12:01;;;;;;;1.33;1.15;;;6.50;99.90;;;;;;5113679;28;20134;-87
2021/12/18 10:14:35;;;;;;;0.70;0.70;;;6.50;99.90;;;;;;5113510;28;20513;-87
2021/12/18 10:17:04;;;;;;;0.60;0.60;;;6.60;99.90;;;;;;5095817;28;20052;-87
2021/12/18 10:19:34;;;;;;;0.60;0.55;;;6.60;99.90;;;;;;5095733;28;20044;-88
2021/12/18 10:22:09;;;;;;;1.00;0.90;;;6.50;99.90;;;;;;5096101;28;20502;-87
2021/12/18 10:24:39;;;;;;;2.47;0.90;;;6.70;99.90;;;;;;5095988;28;20495;-86
2021/12/18 10:27:17;;;;;;;1.70;0.75;;;6.70;99.90;;;;;;5095526;28;20054;-86
2021/12/18 10:29:45;;;;;;;3.88;1.88;;;6.90;99.90;;;;;;5095942;28;20054;-86
2021/12/18 10:32:14;;;;;;;2.60;1.67;;;6.90;99.90;;;;;;5113572;28;20062;-87
2021/12/18 10:34:48;;;;;;;1.13;0.95;;;7.00;99.90;;;;;;5114102;28;20047;-86
2021/12/18 10:37:15;;;;;;;2.85;1.30;;;7.00;99.90;;;;;;5095843;28;20402;-86
2021/12/18 10:39:54;;;;;;;1.00;0.90;;;6.90;99.90;;;;;;5101171;28;20048;-86
2021/12/18 10:42:42;;;;;;;1.75;1.65;;;6.90;99.90;;;;;;5124909;27;20395;-86
2021/12/18 10:45:22;;;;;;;2.65;1.60;;;6.90;99.90;;;;;;5105172;28;20086;-86
2021/12/18 10:47:54;;;;;;;1.60;1.50;;;7.00;99.90;;;;;;5118784;28;20052;-86
2021/12/18 10:50:25;;;;;;;1.25;1.02;;;7.00;99.90;;;;;;5099437;28;20561;-87
2021/12/18 10:53:18;;;;;;;2.63;1.00;;;6.90;99.90;;;;;;5099232;28;20043;-86
2021/12/18 10:55:49;;;;;;;0.63;0.63;;;6.80;99.90;;;;;;5099325;28;20054;-87
2021/12/18 10:58:24;;;;;;;0.60;0.60;;;6.80;99.90;;;;;;5099111;28;20048;-87
2021/12/18 11:01:04;;;;;;;1.33;1.10;;;6.70;99.90;;;;;;5100826;28;20098;-85
2021/12/18 11:03:33;;;;;;;0.57;0.57;;;6.70;99.90;;;;;;5106873;28;20043;-86
2021/12/18 11:06:11;;;;;;;0.68;0.68;;;6.60;99.90;;;;;;5099461;28;20100;-87
2021/12/18 11:09:11;;;;;;;0.60;0.60;;;6.70;99.90;;;;;;5098432;28;20054;-87
2021/12/18 11:14:21;;;;;;;1.23;1.13;;;6.70;99.90;;;;;;5117250;28;20087;-87
2021/12/18 11:16:52;;;;;;;10.20;4.63;;;6.70;99.90;;;;;;5099298;28;20131;-87
2021/12/18 11:19:22;;;;;;;5.10;2.95;;;6.70;99.90;;;;;;5099463;28;20051;-86
2021/12/18 11:21:59;;;;;;;6.03;1.88;;;6.80;99.90;;;;;;5117197;28;20075;-86
2021/12/18 11:24:46;;;;;;;9.93;5.85;;;6.80;99.90;;;;;;5099385;28;20043;-86
2021/12/18 11:27:17;;;;;;;1.40;1.30;;;6.80;99.90;;;;;;5098953;28;20047;-87
2021/12/18 11:29:55;;;;;;;0.57;0.57;;;6.80;99.90;;;;;;5098805;28;20091;-87
2021/12/18 11:32:34;;;;;;;2.25;0.93;;;6.80;99.90;;;;;;5095593;28;20088;-86
2021/12/18 11:35:05;;;;;;;0.98;0.90;;;6.80;99.90;;;;;;5096402;28;20135;-87
2021/12/18 11:37:44;;;;;;;1.30;1.20;;;6.70;99.90;;;;;;5097755;28;20138;-87
2021/12/18 11:40:16;;;;;;;1.40;1.30;;;6.80;99.90;;;;;;5104055;28;20054;-87
2021/12/18 11:42:43;;;;;;;1.00;1.00;;;6.70;99.90;;;;;;5104638;28;20036;-87
2021/12/18 11:45:11;;;;;;;2.47;0.80;;;6.60;99.90;;;;;;5104284;28;20074;-86
2021/12/18 11:47:54;;;;;;;0.63;0.63;;;6.50;99.90;;;;;;5101611;28;20062;-86
2021/12/18 11:50:23;;;;;;;2.13;0.77;;;6.60;99.90;;;;;;5094975;28;20073;-86
2021/12/18 11:53:12;;;;;;;1.30;1.20;;;6.70;99.90;;;;;;5095210;28;20052;-86
2021/12/18 11:55:51;;;;;;;1.27;1.17;;;6.80;99.90;;;;;;5095005;28;20050;-86
2021/12/18 11:58:26;;;;;;;1.60;1.50;;;6.80;99.90;;;;;;5095045;28;20134;-86
2021/12/18 12:00:59;;;;;;;0.82;0.82;;;7.00;99.90;;;;;;5095096;28;20120;-87
2021/12/18 12:03:32;;;;;;;0.70;0.70;;;7.20;99.90;;;;;;5096320;28;20117;-87
2021/12/18 12:06:03;;;;;;;1.73;0.85;;;7.30;99.90;;;;;;5094814;28;20457;-86
2021/12/18 12:08:41;;;;;;;3.28;1.80;;;7.40;99.90;;;;;;5095325;28;20132;-87
2021/12/18 12:11:16;;;;;;;0.80;0.80;;;7.40;99.90;;;;;;5094604;28;20135;-87
2021/12/18 12:14:06;;;;;;;3.53;1.40;;;7.50;99.90;;;;;;5095016;28;20496;-87
2021/12/18 12:16:42;;;;;;;2.60;1.70;;;7.60;99.90;;;;;;5096203;28;20101;-87
2021/12/18 12:19:14;;;;;;;1.30;1.20;;;7.60;99.90;;;;;;5102798;28;20530;-86
2021/12/18 12:21:52;;;;;;;1.45;1.30;;;7.50;99.90;;;;;;5095822;28;20101;-85
2021/12/18 12:24:22;;;;;;;0.60;0.60;;;7.50;99.90;;;;;;5089070;28;20055;-86
2021/12/18 12:26:50;;;;;;;1.27;0.40;;;7.50;99.90;;;;;;5094225;28;20142;-86
2021/12/18 12:29:18;;;;;;;0.57;0.50;;;7.60;99.90;;;;;;5095541;28;20052;-87
2021/12/18 12:32:05;;;;;;;0.50;0.50;;;7.70;99.90;;;;;;5109503;28;20063;-86
2021/12/18 12:34:34;;;;;;;0.50;0.50;;;7.50;99.90;;;;;;5098515;28;20517;-87
2021/12/18 12:37:42;;;;;;;6.15;1.10;;;7.50;99.90;;;;;;5098215;28;20058;-86
2021/12/18 12:40:16;;;;;;;0.60;0.60;;;7.70;99.90;;;;;;5017296;28;20060;-87
2021/12/18 12:43:22;;;;;;;1.80;0.88;;;7.80;99.90;;;;;;5017134;28;20053;-87
2021/12/18 12:45:53;;;;;;;3.78;1.40;;;7.70;99.90;;;;;;5082838;28;20052;-86
2021/12/18 12:48:20;;;;;;;0.80;0.80;;;7.80;99.90;;;;;;5099061;28;20079;-86
2021/12/18 12:51:00;;;;;;;2.90;0.75;;;7.90;99.90;;;;;;5098307;28;20449;-86
2021/12/18 12:53:52;;;;;;;1.10;1.10;;;7.90;99.90;;;;;;5098617;28;20055;-87
2021/12/18 12:56:22;;;;;;;2.28;0.70;;;7.90;99.90;;;;;;5116104;28;20054;-86
2021/12/18 12:59:24;;;;;;;1.02;0.40;;;7.90;99.90;;;;;;5097854;28;20051;-87
2021/12/18 13:01:52;;;;;;;2.05;0.70;;;7.90;99.90;;;;;;5097830;28;20044;-86
2021/12/18 13:04:19;;;;;;;4.63;0.57;;;7.90;99.90;;;;;;5115910;28;20079;-86
2021/12/18 13:06:46;;;;;;;0.70;0.50;;;7.90;99.90;;;;;;5097040;28;20048;-86
2021/12/18 13:09:13;;;;;;;0.45;0.40;;;7.90;99.90;;;;;;5115948;28;20475;-87
2021/12/18 13:11:41;;;;;;;1.65;0.40;;;7.90;99.90;;;;;;5098471;28;20623;-86
2021/12/18 13:14:13;;;;;;;21.33;14.50;;;7.80;99.90;;;;;;5115882;28;20135;-86
2021/12/18 13:16:40;;;;;;;2.88;1.17;;;7.80;99.90;;;;;;5098398;28;20048;-86
2021/12/18 13:19:06;;;;;;;4.93;3.20;;;7.70;99.90;;;;;;5115560;28;20061;-87
2021/12/18 13:21:38;;;;;;;7.45;5.38;;;7.70;99.90;;;;;;5097807;28;20048;-86
2021/12/18 13:24:08;;;;;;;8.07;4.07;;;7.70;99.90;;;;;;5098373;28;20054;-86
2021/12/18 13:26:43;;;;;;;0.90;0.90;;;7.70;99.90;;;;;;5097419;28;20047;-86
2021/12/18 13:29:14;;;;;;;1.50;1.33;;;7.70;99.90;;;;;;5097686;28;20075;-87
2021/12/18 13:31:54;;;;;;;1.83;1.00;;;7.80;99.90;;;;;;5097662;28;20126;-87
2021/12/18 13:34:28;;;;;;;0.98;0.82;;;7.90;99.90;;;;;;5099533;28;20043;-86
2021/12/18 13:37:04;;;;;;;0.52;0.52;;;7.80;99.90;;;;;;5112344;28;20051;-86
2021/12/18 13:39:40;;;;;;;0.80;0.80;;;7.80;99.90;;;;;;5098521;28;20077;-87
2021/12/18 13:42:20;;;;;;;0.60;0.60;;;7.70;99.90;;;;;;5096805;28;20079;-86
2021/12/18 13:44:51;;;;;;;1.00;1.00;;;7.60;99.90;;;;;;5096429;28;20040;-86
2021/12/18 13:47:29;;;;;;;1.30;1.20;;;7.40;99.90;;;;;;5099119;28;20487;-86